sensor_id;sensor_type;location;lat;lon;timestamp;temperature;humidity
38514;DHT22;24282;48.400;10.808;2023-09-30T00:00:01;15.70;81.50
38514;DHT22;24282;48.400;10.808;2023-09-30T00:02:36;15.60;81.50
38514;DHT22;24282;48.400;10.808;2023-09-30T00:05:02;15.60;81.60
38514;DHT22;24282;48.400;10.808;2023-09-30T00:07:29;15.60;81.60
38514;DHT22;24282;48.400;10.808;2023-09-30T00:09:58;15.50;81.60
38514;DHT22;24282;48.400;10.808;2023-09-30T00:12:23;15.50;81.50
38514;DHT22;24282;48.400;10.808;2023-09-30T00:14:49;15.40;81.40
38514;DHT22;24282;48.400;10.808;2023-09-30T00:17:15;15.40;81.50
38514;DHT22;24282;48.400;10.808;2023-09-30T00:19:40;15.40;81.60
38514;DHT22;24282;48.400;10.808;2023-09-30T00:22:06;15.30;81.70
38514;DHT22;24282;48.400;10.808;2023-09-30T00:24:32;15.30;81.70
38514;DHT22;24282;48.400;10.808;2023-09-30T00:26:59;15.20;81.80
38514;DHT22;24282;48.400;10.808;2023-09-30T00:29:25;15.20;81.80
38514;DHT22;24282;48.400;10.808;2023-09-30T00:31:52;15.20;81.90
38514;DHT22;24282;48.400;10.808;2023-09-30T00:34:17;15.10;81.90
38514;DHT22;24282;48.400;10.808;2023-09-30T00:36:43;15.10;81.90
38514;DHT22;24282;48.400;10.808;2023-09-30T00:39:09;15.10;82.20
38514;DHT22;24282;48.400;10.808;2023-09-30T00:41:35;15.00;82.30
38514;DHT22;24282;48.400;10.808;2023-09-30T00:44:02;15.00;82.30
38514;DHT22;24282;48.400;10.808;2023-09-30T00:46:37;15.00;82.30
38514;DHT22;24282;48.400;10.808;2023-09-30T00:49:03;15.00;82.40
38514;DHT22;24282;48.400;10.808;2023-09-30T00:51:29;14.90;82.40
38514;DHT22;24282;48.400;10.808;2023-09-30T00:53:59;14.90;82.40
38514;DHT22;24282;48.400;10.808;2023-09-30T00:56:27;14.90;82.40
38514;DHT22;24282;48.400;10.808;2023-09-30T00:58:54;14.90;82.40
38514;DHT22;24282;48.400;10.808;2023-09-30T01:01:20;14.90;82.20
38514;DHT22;24282;48.400;10.808;2023-09-30T01:03:47;14.80;82.10
38514;DHT22;24282;48.400;10.808;2023-09-30T01:06:13;14.70;82.10
38514;DHT22;24282;48.400;10.808;2023-09-30T01:08:39;14.70;82.00
38514;DHT22;24282;48.400;10.808;2023-09-30T01:11:05;14.70;82.00
38514;DHT22;24282;48.400;10.808;2023-09-30T01:13:35;14.60;81.90
38514;DHT22;24282;48.400;10.808;2023-09-30T01:16:05;14.50;82.00
38514;DHT22;24282;48.400;10.808;2023-09-30T01:18:32;14.50;82.10
38514;DHT22;24282;48.400;10.808;2023-09-30T01:21:02;14.50;82.00
38514;DHT22;24282;48.400;10.808;2023-09-30T01:23:30;14.40;82.10
38514;DHT22;24282;48.400;10.808;2023-09-30T01:25:55;14.40;82.20
38514;DHT22;24282;48.400;10.808;2023-09-30T01:28:21;14.40;82.30
38514;DHT22;24282;48.400;10.808;2023-09-30T01:30:48;14.40;82.50
38514;DHT22;24282;48.400;10.808;2023-09-30T01:33:14;14.30;82.40
38514;DHT22;24282;48.400;10.808;2023-09-30T01:35:44;14.40;82.40
38514;DHT22;24282;48.400;10.808;2023-09-30T01:38:10;14.30;82.40
38514;DHT22;24282;48.400;10.808;2023-09-30T01:40:36;14.20;82.40
38514;DHT22;24282;48.400;10.808;2023-09-30T01:43:03;14.20;82.30
38514;DHT22;24282;48.400;10.808;2023-09-30T01:45:29;14.20;82.30
38514;DHT22;24282;48.400;10.808;2023-09-30T01:47:55;14.20;82.30
38514;DHT22;24282;48.400;10.808;2023-09-30T01:50:20;14.10;82.30
38514;DHT22;24282;48.400;10.808;2023-09-30T01:52:46;14.10;82.40
38514;DHT22;24282;48.400;10.808;2023-09-30T01:55:12;14.10;82.40
38514;DHT22;24282;48.400;10.808;2023-09-30T01:57:38;14.00;82.40
38514;DHT22;24282;48.400;10.808;2023-09-30T02:00:04;14.00;82.50
38514;DHT22;24282;48.400;10.808;2023-09-30T02:02:38;14.00;82.60
38514;DHT22;24282;48.400;10.808;2023-09-30T02:05:05;13.90;82.60
38514;DHT22;24282;48.400;10.808;2023-09-30T02:07:34;13.90;82.80
38514;DHT22;24282;48.400;10.808;2023-09-30T02:10:03;13.90;82.80
38514;DHT22;24282;48.400;10.808;2023-09-30T02:12:29;13.90;82.80
38514;DHT22;24282;48.400;10.808;2023-09-30T02:14:58;13.80;82.90
38514;DHT22;24282;48.400;10.808;2023-09-30T02:17:24;13.80;82.90
38514;DHT22;24282;48.400;10.808;2023-09-30T02:19:50;13.80;82.90
38514;DHT22;24282;48.400;10.808;2023-09-30T02:22:16;13.80;83.00
38514;DHT22;24282;48.400;10.808;2023-09-30T02:24:41;13.70;83.00
38514;DHT22;24282;48.400;10.808;2023-09-30T02:27:07;13.70;83.10
38514;DHT22;24282;48.400;10.808;2023-09-30T02:29:33;13.70;83.20
38514;DHT22;24282;48.400;10.808;2023-09-30T02:31:59;13.70;83.30
38514;DHT22;24282;48.400;10.808;2023-09-30T02:34:25;13.70;83.40
38514;DHT22;24282;48.400;10.808;2023-09-30T02:36:51;13.60;83.50
38514;DHT22;24282;48.400;10.808;2023-09-30T02:39:17;13.70;83.40
38514;DHT22;24282;48.400;10.808;2023-09-30T02:41:43;13.70;83.50
38514;DHT22;24282;48.400;10.808;2023-09-30T02:44:09;13.60;83.70
38514;DHT22;24282;48.400;10.808;2023-09-30T02:46:35;13.60;83.70
38514;DHT22;24282;48.400;10.808;2023-09-30T02:49:01;13.60;83.80
38514;DHT22;24282;48.400;10.808;2023-09-30T02:51:27;13.60;84.00
38514;DHT22;24282;48.400;10.808;2023-09-30T02:53:56;13.60;84.10
38514;DHT22;24282;48.400;10.808;2023-09-30T02:56:22;13.60;84.20
38514;DHT22;24282;48.400;10.808;2023-09-30T02:58:50;13.70;84.30
38514;DHT22;24282;48.400;10.808;2023-09-30T03:01:19;13.60;84.20
38514;DHT22;24282;48.400;10.808;2023-09-30T03:03:46;13.70;84.20
38514;DHT22;24282;48.400;10.808;2023-09-30T03:06:12;13.60;84.30
38514;DHT22;24282;48.400;10.808;2023-09-30T03:08:39;13.60;84.50
38514;DHT22;24282;48.400;10.808;2023-09-30T03:11:06;13.70;84.90
38514;DHT22;24282;48.400;10.808;2023-09-30T03:13:33;13.70;85.20
38514;DHT22;24282;48.400;10.808;2023-09-30T03:15:59;13.70;85.40
38514;DHT22;24282;48.400;10.808;2023-09-30T03:18:27;13.70;85.40
38514;DHT22;24282;48.400;10.808;2023-09-30T03:20:59;13.70;85.50
38514;DHT22;24282;48.400;10.808;2023-09-30T03:23:34;13.70;85.40
38514;DHT22;24282;48.400;10.808;2023-09-30T03:26:00;13.70;85.30
38514;DHT22;24282;48.400;10.808;2023-09-30T03:28:29;13.70;85.00
38514;DHT22;24282;48.400;10.808;2023-09-30T03:30:54;13.70;85.00
38514;DHT22;24282;48.400;10.808;2023-09-30T03:33:24;13.70;84.90
38514;DHT22;24282;48.400;10.808;2023-09-30T03:35:51;13.70;84.80
38514;DHT22;24282;48.400;10.808;2023-09-30T03:38:17;13.70;84.80
38514;DHT22;24282;48.400;10.808;2023-09-30T03:40:45;13.60;84.80
38514;DHT22;24282;48.400;10.808;2023-09-30T03:43:16;13.60;84.70
38514;DHT22;24282;48.400;10.808;2023-09-30T03:45:41;13.50;84.40
38514;DHT22;24282;48.400;10.808;2023-09-30T03:48:07;13.50;84.20
38514;DHT22;24282;48.400;10.808;2023-09-30T03:50:34;13.50;83.90
38514;DHT22;24282;48.400;10.808;2023-09-30T03:53:04;13.40;83.70
38514;DHT22;24282;48.400;10.808;2023-09-30T03:55:42;13.40;83.60
38514;DHT22;24282;48.400;10.808;2023-09-30T03:58:07;13.30;83.60
38514;DHT22;24282;48.400;10.808;2023-09-30T04:00:33;13.30;83.70
38514;DHT22;24282;48.400;10.808;2023-09-30T04:02:59;13.30;83.90
38514;DHT22;24282;48.400;10.808;2023-09-30T04:05:25;13.30;84.00
38514;DHT22;24282;48.400;10.808;2023-09-30T04:07:58;13.30;84.10
38514;DHT22;24282;48.400;10.808;2023-09-30T04:10:23;13.20;84.20
38514;DHT22;24282;48.400;10.808;2023-09-30T04:12:49;13.20;84.20
38514;DHT22;24282;48.400;10.808;2023-09-30T04:15:15;13.20;84.20
38514;DHT22;24282;48.400;10.808;2023-09-30T04:17:41;13.20;84.30
38514;DHT22;24282;48.400;10.808;2023-09-30T04:20:08;13.10;84.40
38514;DHT22;24282;48.400;10.808;2023-09-30T04:22:36;13.20;84.50
38514;DHT22;24282;48.400;10.808;2023-09-30T04:25:03;13.10;84.50
38514;DHT22;24282;48.400;10.808;2023-09-30T04:27:34;13.10;84.60
38514;DHT22;24282;48.400;10.808;2023-09-30T04:29:59;13.10;84.70
38514;DHT22;24282;48.400;10.808;2023-09-30T04:32:28;13.10;84.90
38514;DHT22;24282;48.400;10.808;2023-09-30T04:34:55;13.20;85.10
38514;DHT22;24282;48.400;10.808;2023-09-30T04:37:20;13.10;85.30
38514;DHT22;24282;48.400;10.808;2023-09-30T04:39:46;13.20;85.50
38514;DHT22;24282;48.400;10.808;2023-09-30T04:42:12;13.20;85.60
38514;DHT22;24282;48.400;10.808;2023-09-30T04:44:38;13.20;85.60
38514;DHT22;24282;48.400;10.808;2023-09-30T04:47:04;13.20;85.50
38514;DHT22;24282;48.400;10.808;2023-09-30T04:49:30;13.20;85.40
38514;DHT22;24282;48.400;10.808;2023-09-30T04:51:56;13.20;85.40
38514;DHT22;24282;48.400;10.808;2023-09-30T04:54:22;13.20;85.30
38514;DHT22;24282;48.400;10.808;2023-09-30T04:56:47;13.20;85.30
38514;DHT22;24282;48.400;10.808;2023-09-30T04:59:13;13.10;85.20
38514;DHT22;24282;48.400;10.808;2023-09-30T05:01:39;13.10;85.10
38514;DHT22;24282;48.400;10.808;2023-09-30T05:04:05;13.10;85.00
38514;DHT22;24282;48.400;10.808;2023-09-30T05:06:32;13.10;84.80
38514;DHT22;24282;48.400;10.808;2023-09-30T05:08:58;13.00;84.80
38514;DHT22;24282;48.400;10.808;2023-09-30T05:11:24;13.00;84.80
38514;DHT22;24282;48.400;10.808;2023-09-30T05:13:50;13.00;85.10
38514;DHT22;24282;48.400;10.808;2023-09-30T05:16:17;13.00;85.20
38514;DHT22;24282;48.400;10.808;2023-09-30T05:18:43;13.00;85.10
38514;DHT22;24282;48.400;10.808;2023-09-30T05:21:09;12.90;85.20
38514;DHT22;24282;48.400;10.808;2023-09-30T05:23:36;12.90;85.20
38514;DHT22;24282;48.400;10.808;2023-09-30T05:26:02;12.90;85.20
38514;DHT22;24282;48.400;10.808;2023-09-30T05:28:28;12.90;85.30
38514;DHT22;24282;48.400;10.808;2023-09-30T05:30:54;12.90;85.60
38514;DHT22;24282;48.400;10.808;2023-09-30T05:33:19;13.00;86.00
38514;DHT22;24282;48.400;10.808;2023-09-30T05:35:45;13.00;86.00
38514;DHT22;24282;48.400;10.808;2023-09-30T05:38:11;13.00;85.80
38514;DHT22;24282;48.400;10.808;2023-09-30T05:40:38;13.00;85.70
38514;DHT22;24282;48.400;10.808;2023-09-30T05:43:04;13.00;85.60
38514;DHT22;24282;48.400;10.808;2023-09-30T05:45:32;12.90;85.60
38514;DHT22;24282;48.400;10.808;2023-09-30T05:48:04;13.00;85.60
38514;DHT22;24282;48.400;10.808;2023-09-30T05:50:35;13.00;85.60
38514;DHT22;24282;48.400;10.808;2023-09-30T05:53:02;13.00;85.60
38514;DHT22;24282;48.400;10.808;2023-09-30T05:55:28;13.00;85.60
38514;DHT22;24282;48.400;10.808;2023-09-30T05:57:54;13.00;85.60
38514;DHT22;24282;48.400;10.808;2023-09-30T06:00:20;13.00;85.60
38514;DHT22;24282;48.400;10.808;2023-09-30T06:02:48;13.00;85.70
38514;DHT22;24282;48.400;10.808;2023-09-30T06:05:14;13.10;85.80
38514;DHT22;24282;48.400;10.808;2023-09-30T06:07:41;13.10;85.90
38514;DHT22;24282;48.400;10.808;2023-09-30T06:10:11;13.10;86.10
38514;DHT22;24282;48.400;10.808;2023-09-30T06:12:37;13.20;86.20
38514;DHT22;24282;48.400;10.808;2023-09-30T06:15:03;13.20;86.10
38514;DHT22;24282;48.400;10.808;2023-09-30T06:17:29;13.20;85.90
38514;DHT22;24282;48.400;10.808;2023-09-30T06:19:55;13.30;85.90
38514;DHT22;24282;48.400;10.808;2023-09-30T06:22:20;13.40;86.00
38514;DHT22;24282;48.400;10.808;2023-09-30T06:24:47;13.40;86.10
38514;DHT22;24282;48.400;10.808;2023-09-30T06:27:13;13.40;86.00
38514;DHT22;24282;48.400;10.808;2023-09-30T06:29:39;13.40;86.10
38514;DHT22;24282;48.400;10.808;2023-09-30T06:32:06;13.50;86.00
38514;DHT22;24282;48.400;10.808;2023-09-30T06:34:32;13.50;85.90
38514;DHT22;24282;48.400;10.808;2023-09-30T06:37:00;13.50;85.80
38514;DHT22;24282;48.400;10.808;2023-09-30T06:39:25;13.60;85.90
38514;DHT22;24282;48.400;10.808;2023-09-30T06:41:51;13.60;86.10
38514;DHT22;24282;48.400;10.808;2023-09-30T06:44:17;13.60;86.10
38514;DHT22;24282;48.400;10.808;2023-09-30T06:46:43;13.70;86.00
38514;DHT22;24282;48.400;10.808;2023-09-30T06:49:09;13.70;85.90
38514;DHT22;24282;48.400;10.808;2023-09-30T06:51:36;13.70;86.00
38514;DHT22;24282;48.400;10.808;2023-09-30T06:54:04;13.70;86.20
38514;DHT22;24282;48.400;10.808;2023-09-30T06:56:32;13.70;86.30
38514;DHT22;24282;48.400;10.808;2023-09-30T06:58:57;13.80;86.50
38514;DHT22;24282;48.400;10.808;2023-09-30T07:01:23;13.90;86.50
38514;DHT22;24282;48.400;10.808;2023-09-30T07:03:49;13.90;86.50
38514;DHT22;24282;48.400;10.808;2023-09-30T07:06:22;14.00;86.40
38514;DHT22;24282;48.400;10.808;2023-09-30T07:08:48;14.00;86.40
38514;DHT22;24282;48.400;10.808;2023-09-30T07:11:14;14.10;86.50
38514;DHT22;24282;48.400;10.808;2023-09-30T07:13:40;14.10;86.60
38514;DHT22;24282;48.400;10.808;2023-09-30T07:16:06;14.20;86.70
38514;DHT22;24282;48.400;10.808;2023-09-30T07:18:31;14.20;86.80
38514;DHT22;24282;48.400;10.808;2023-09-30T07:20:57;14.20;86.90
38514;DHT22;24282;48.400;10.808;2023-09-30T07:23:23;14.30;87.10
38514;DHT22;24282;48.400;10.808;2023-09-30T07:25:48;14.40;87.00
38514;DHT22;24282;48.400;10.808;2023-09-30T07:28:14;14.40;87.00
38514;DHT22;24282;48.400;10.808;2023-09-30T07:30:40;14.50;86.90
38514;DHT22;24282;48.400;10.808;2023-09-30T07:33:06;14.60;86.90
38514;DHT22;24282;48.400;10.808;2023-09-30T07:35:33;14.60;86.90
38514;DHT22;24282;48.400;10.808;2023-09-30T07:37:59;14.70;86.70
38514;DHT22;24282;48.400;10.808;2023-09-30T07:40:24;14.80;85.90
38514;DHT22;24282;48.400;10.808;2023-09-30T07:42:50;14.90;85.30
38514;DHT22;24282;48.400;10.808;2023-09-30T07:45:16;14.90;85.20
38514;DHT22;24282;48.400;10.808;2023-09-30T07:47:46;15.00;85.00
38514;DHT22;24282;48.400;10.808;2023-09-30T07:50:12;15.10;84.50
38514;DHT22;24282;48.400;10.808;2023-09-30T07:52:38;15.10;83.90
38514;DHT22;24282;48.400;10.808;2023-09-30T07:55:08;15.20;83.60
38514;DHT22;24282;48.400;10.808;2023-09-30T07:57:34;15.30;83.50
38514;DHT22;24282;48.400;10.808;2023-09-30T08:00:01;15.30;83.20
38514;DHT22;24282;48.400;10.808;2023-09-30T08:02:35;15.40;83.20
38514;DHT22;24282;48.400;10.808;2023-09-30T08:05:02;15.40;83.30
38514;DHT22;24282;48.400;10.808;2023-09-30T08:07:28;15.40;83.30
38514;DHT22;24282;48.400;10.808;2023-09-30T08:09:54;15.40;83.20
38514;DHT22;24282;48.400;10.808;2023-09-30T08:12:20;15.50;83.00
38514;DHT22;24282;48.400;10.808;2023-09-30T08:14:45;15.50;82.80
38514;DHT22;24282;48.400;10.808;2023-09-30T08:17:11;15.60;82.60
38514;DHT22;24282;48.400;10.808;2023-09-30T08:19:37;15.60;82.80
38514;DHT22;24282;48.400;10.808;2023-09-30T08:22:03;15.80;82.80
38514;DHT22;24282;48.400;10.808;2023-09-30T08:24:29;15.80;82.50
38514;DHT22;24282;48.400;10.808;2023-09-30T08:26:55;15.80;81.80
38514;DHT22;24282;48.400;10.808;2023-09-30T08:29:22;15.90;81.60
38514;DHT22;24282;48.400;10.808;2023-09-30T08:31:47;15.90;81.30
38514;DHT22;24282;48.400;10.808;2023-09-30T08:34:16;15.90;81.20
38514;DHT22;24282;48.400;10.808;2023-09-30T08:36:42;16.00;81.00
38514;DHT22;24282;48.400;10.808;2023-09-30T08:39:08;16.10;80.90
38514;DHT22;24282;48.400;10.808;2023-09-30T08:41:38;16.10;80.40
38514;DHT22;24282;48.400;10.808;2023-09-30T08:44:04;16.10;79.60
38514;DHT22;24282;48.400;10.808;2023-09-30T08:46:31;16.20;79.00
38514;DHT22;24282;48.400;10.808;2023-09-30T08:49:02;16.20;79.00
38514;DHT22;24282;48.400;10.808;2023-09-30T08:51:29;16.30;78.40
38514;DHT22;24282;48.400;10.808;2023-09-30T08:53:56;16.40;78.00
38514;DHT22;24282;48.400;10.808;2023-09-30T08:56:30;16.50;78.10
38514;DHT22;24282;48.400;10.808;2023-09-30T08:59:00;16.50;77.60
38514;DHT22;24282;48.400;10.808;2023-09-30T09:01:27;16.50;77.20
38514;DHT22;24282;48.400;10.808;2023-09-30T09:03:53;16.60;77.60
38514;DHT22;24282;48.400;10.808;2023-09-30T09:06:24;16.50;78.00
38514;DHT22;24282;48.400;10.808;2023-09-30T09:08:51;16.50;78.10
38514;DHT22;24282;48.400;10.808;2023-09-30T09:11:17;16.60;78.00
38514;DHT22;24282;48.400;10.808;2023-09-30T09:13:48;16.50;77.90
38514;DHT22;24282;48.400;10.808;2023-09-30T09:16:17;16.60;77.90
38514;DHT22;24282;48.400;10.808;2023-09-30T09:18:45;16.60;77.70
38514;DHT22;24282;48.400;10.808;2023-09-30T09:21:14;16.70;77.70
38514;DHT22;24282;48.400;10.808;2023-09-30T09:23:46;16.80;77.50
38514;DHT22;24282;48.400;10.808;2023-09-30T09:26:32;16.90;76.90
38514;DHT22;24282;48.400;10.808;2023-09-30T09:29:04;17.10;76.60
38514;DHT22;24282;48.400;10.808;2023-09-30T09:31:34;17.20;76.10
38514;DHT22;24282;48.400;10.808;2023-09-30T09:34:02;17.30;74.10
38514;DHT22;24282;48.400;10.808;2023-09-30T09:36:44;17.30;73.50
38514;DHT22;24282;48.400;10.808;2023-09-30T09:39:11;17.40;73.10
38514;DHT22;24282;48.400;10.808;2023-09-30T09:41:51;17.40;73.50
38514;DHT22;24282;48.400;10.808;2023-09-30T09:44:19;17.40;73.10
38514;DHT22;24282;48.400;10.808;2023-09-30T09:46:47;17.40;72.00
38514;DHT22;24282;48.400;10.808;2023-09-30T09:49:16;17.50;71.80
38514;DHT22;24282;48.400;10.808;2023-09-30T09:51:47;17.40;72.00
38514;DHT22;24282;48.400;10.808;2023-09-30T09:54:13;17.50;71.90
38514;DHT22;24282;48.400;10.808;2023-09-30T09:56:39;17.50;72.30
38514;DHT22;24282;48.400;10.808;2023-09-30T09:59:07;17.50;72.40
38514;DHT22;24282;48.400;10.808;2023-09-30T10:01:34;17.60;71.70
38514;DHT22;24282;48.400;10.808;2023-09-30T10:04:01;17.60;71.40
38514;DHT22;24282;48.400;10.808;2023-09-30T10:06:27;17.60;71.90
38514;DHT22;24282;48.400;10.808;2023-09-30T10:08:54;17.70;72.40
38514;DHT22;24282;48.400;10.808;2023-09-30T10:11:23;17.70;72.20
38514;DHT22;24282;48.400;10.808;2023-09-30T10:13:56;17.70;71.30
38514;DHT22;24282;48.400;10.808;2023-09-30T10:21:37;17.60;70.90
38514;DHT22;24282;48.400;10.808;2023-09-30T10:24:35;17.60;70.80
38514;DHT22;24282;48.400;10.808;2023-09-30T10:30:08;17.50;71.90
38514;DHT22;24282;48.400;10.808;2023-09-30T10:35:18;17.60;70.30
38514;DHT22;24282;48.400;10.808;2023-09-30T10:37:44;17.60;69.30
38514;DHT22;24282;48.400;10.808;2023-09-30T10:40:29;17.70;67.80
38514;DHT22;24282;48.400;10.808;2023-09-30T10:42:55;17.70;67.20
38514;DHT22;24282;48.400;10.808;2023-09-30T10:50:58;17.90;68.50
38514;DHT22;24282;48.400;10.808;2023-09-30T10:53:26;17.90;69.00
38514;DHT22;24282;48.400;10.808;2023-09-30T10:55:59;17.90;69.20
38514;DHT22;24282;48.400;10.808;2023-09-30T11:01:11;17.90;70.10
38514;DHT22;24282;48.400;10.808;2023-09-30T11:03:39;17.90;70.00
38514;DHT22;24282;48.400;10.808;2023-09-30T11:06:05;17.90;70.40
38514;DHT22;24282;48.400;10.808;2023-09-30T11:08:32;17.90;70.20
38514;DHT22;24282;48.400;10.808;2023-09-30T11:10:58;17.90;69.80
38514;DHT22;24282;48.400;10.808;2023-09-30T11:13:32;18.00;69.10
38514;DHT22;24282;48.400;10.808;2023-09-30T11:16:01;18.00;68.70
38514;DHT22;24282;48.400;10.808;2023-09-30T11:18:29;18.00;68.70
38514;DHT22;24282;48.400;10.808;2023-09-30T11:23:30;18.20;68.50
38514;DHT22;24282;48.400;10.808;2023-09-30T11:25:56;18.30;69.00
38514;DHT22;24282;48.400;10.808;2023-09-30T11:28:22;18.40;68.70
38514;DHT22;24282;48.400;10.808;2023-09-30T11:33:20;18.50;68.30
38514;DHT22;24282;48.400;10.808;2023-09-30T11:36:02;18.50;67.40
38514;DHT22;24282;48.400;10.808;2023-09-30T11:38:30;18.40;67.90
38514;DHT22;24282;48.400;10.808;2023-09-30T11:41:04;18.40;68.60
38514;DHT22;24282;48.400;10.808;2023-09-30T11:43:31;18.40;69.00
38514;DHT22;24282;48.400;10.808;2023-09-30T11:46:23;18.30;69.40
38514;DHT22;24282;48.400;10.808;2023-09-30T11:49:02;18.40;69.40
38514;DHT22;24282;48.400;10.808;2023-09-30T11:51:34;18.50;69.00
38514;DHT22;24282;48.400;10.808;2023-09-30T11:54:08;18.70;67.80
38514;DHT22;24282;48.400;10.808;2023-09-30T11:56:36;18.90;68.10
38514;DHT22;24282;48.400;10.808;2023-09-30T11:59:02;19.10;66.70
38514;DHT22;24282;48.400;10.808;2023-09-30T12:01:30;19.20;65.80
38514;DHT22;24282;48.400;10.808;2023-09-30T12:03:58;19.20;65.80
38514;DHT22;24282;48.400;10.808;2023-09-30T12:06:25;19.30;66.80
38514;DHT22;24282;48.400;10.808;2023-09-30T12:08:51;19.40;67.10
38514;DHT22;24282;48.400;10.808;2023-09-30T12:11:18;19.40;66.60
38514;DHT22;24282;48.400;10.808;2023-09-30T12:13:44;19.40;67.00
38514;DHT22;24282;48.400;10.808;2023-09-30T12:16:11;19.30;66.80
38514;DHT22;24282;48.400;10.808;2023-09-30T12:18:38;19.40;65.80
38514;DHT22;24282;48.400;10.808;2023-09-30T12:21:05;19.40;66.10
38514;DHT22;24282;48.400;10.808;2023-09-30T12:23:33;19.40;65.50
38514;DHT22;24282;48.400;10.808;2023-09-30T12:26:00;19.30;65.80
38514;DHT22;24282;48.400;10.808;2023-09-30T12:28:34;19.30;66.30
38514;DHT22;24282;48.400;10.808;2023-09-30T12:31:00;19.30;67.80
38514;DHT22;24282;48.400;10.808;2023-09-30T12:33:30;19.20;68.00
38514;DHT22;24282;48.400;10.808;2023-09-30T12:35:56;19.20;68.10
38514;DHT22;24282;48.400;10.808;2023-09-30T12:38:25;19.20;68.20
38514;DHT22;24282;48.400;10.808;2023-09-30T12:40:54;19.20;68.10
38514;DHT22;24282;48.400;10.808;2023-09-30T12:43:20;19.20;67.60
38514;DHT22;24282;48.400;10.808;2023-09-30T12:45:47;19.10;67.20
38514;DHT22;24282;48.400;10.808;2023-09-30T12:48:13;19.10;66.60
38514;DHT22;24282;48.400;10.808;2023-09-30T12:50:40;19.10;65.80
38514;DHT22;24282;48.400;10.808;2023-09-30T12:53:06;19.00;65.20
38514;DHT22;24282;48.400;10.808;2023-09-30T12:55:32;19.10;65.10
38514;DHT22;24282;48.400;10.808;2023-09-30T12:57:59;19.00;65.90
38514;DHT22;24282;48.400;10.808;2023-09-30T13:00:26;19.10;66.80
38514;DHT22;24282;48.400;10.808;2023-09-30T13:02:52;19.00;67.30
38514;DHT22;24282;48.400;10.808;2023-09-30T13:05:18;19.00;67.80
38514;DHT22;24282;48.400;10.808;2023-09-30T13:07:45;19.00;68.30
38514;DHT22;24282;48.400;10.808;2023-09-30T13:10:12;19.10;68.50
38514;DHT22;24282;48.400;10.808;2023-09-30T13:12:38;19.00;68.30
38514;DHT22;24282;48.400;10.808;2023-09-30T13:15:05;19.10;67.60
38514;DHT22;24282;48.400;10.808;2023-09-30T13:17:31;19.10;67.70
38514;DHT22;24282;48.400;10.808;2023-09-30T13:19:57;19.10;68.10
38514;DHT22;24282;48.400;10.808;2023-09-30T13:22:23;19.10;68.20
38514;DHT22;24282;48.400;10.808;2023-09-30T13:24:49;19.20;67.30
38514;DHT22;24282;48.400;10.808;2023-09-30T13:27:15;19.20;67.10
38514;DHT22;24282;48.400;10.808;2023-09-30T13:29:41;19.30;67.40
38514;DHT22;24282;48.400;10.808;2023-09-30T13:32:09;19.20;67.20
38514;DHT22;24282;48.400;10.808;2023-09-30T13:34:35;19.10;67.30
38514;DHT22;24282;48.400;10.808;2023-09-30T13:37:01;19.10;67.40
38514;DHT22;24282;48.400;10.808;2023-09-30T13:39:27;19.10;67.50
38514;DHT22;24282;48.400;10.808;2023-09-30T13:41:53;19.10;67.80
38514;DHT22;24282;48.400;10.808;2023-09-30T13:44:18;19.10;67.70
38514;DHT22;24282;48.400;10.808;2023-09-30T13:46:45;19.10;67.70
38514;DHT22;24282;48.400;10.808;2023-09-30T13:49:11;19.10;67.40
38514;DHT22;24282;48.400;10.808;2023-09-30T13:51:37;19.10;66.10
38514;DHT22;24282;48.400;10.808;2023-09-30T13:54:05;19.10;63.10
38514;DHT22;24282;48.400;10.808;2023-09-30T13:56:33;19.10;63.00
38514;DHT22;24282;48.400;10.808;2023-09-30T13:58:58;19.10;64.00
38514;DHT22;24282;48.400;10.808;2023-09-30T14:01:25;19.20;64.20
38514;DHT22;24282;48.400;10.808;2023-09-30T14:03:51;19.20;64.20
38514;DHT22;24282;48.400;10.808;2023-09-30T14:06:21;19.20;63.50
38514;DHT22;24282;48.400;10.808;2023-09-30T14:08:47;19.30;63.40
38514;DHT22;24282;48.400;10.808;2023-09-30T14:11:12;19.30;63.80
38514;DHT22;24282;48.400;10.808;2023-09-30T14:13:38;19.30;64.70
38514;DHT22;24282;48.400;10.808;2023-09-30T14:16:05;19.30;65.50
38514;DHT22;24282;48.400;10.808;2023-09-30T14:18:32;19.30;65.70
38514;DHT22;24282;48.400;10.808;2023-09-30T14:20:59;19.20;65.80
38514;DHT22;24282;48.400;10.808;2023-09-30T14:23:26;19.20;65.80
38514;DHT22;24282;48.400;10.808;2023-09-30T14:25:55;19.20;66.00
38514;DHT22;24282;48.400;10.808;2023-09-30T14:28:22;19.20;66.70
38514;DHT22;24282;48.400;10.808;2023-09-30T14:30:48;19.20;67.00
38514;DHT22;24282;48.400;10.808;2023-09-30T14:33:16;19.20;67.00
38514;DHT22;24282;48.400;10.808;2023-09-30T14:35:42;19.10;66.90
38514;DHT22;24282;48.400;10.808;2023-09-30T14:38:09;19.10;66.90
38514;DHT22;24282;48.400;10.808;2023-09-30T14:40:40;19.00;66.90
38514;DHT22;24282;48.400;10.808;2023-09-30T14:43:09;19.00;66.90
38514;DHT22;24282;48.400;10.808;2023-09-30T14:45:39;19.00;67.10
38514;DHT22;24282;48.400;10.808;2023-09-30T14:48:06;19.00;67.60
38514;DHT22;24282;48.400;10.808;2023-09-30T14:50:32;19.00;67.70
38514;DHT22;24282;48.400;10.808;2023-09-30T14:52:58;18.90;67.90
38514;DHT22;24282;48.400;10.808;2023-09-30T14:55:24;18.90;68.00
38514;DHT22;24282;48.400;10.808;2023-09-30T14:57:50;18.90;68.10
38514;DHT22;24282;48.400;10.808;2023-09-30T15:00:16;18.90;68.50
38514;DHT22;24282;48.400;10.808;2023-09-30T15:02:42;18.90;69.10
38514;DHT22;24282;48.400;10.808;2023-09-30T15:05:08;18.80;69.70
38514;DHT22;24282;48.400;10.808;2023-09-30T15:07:34;18.70;70.50
38514;DHT22;24282;48.400;10.808;2023-09-30T15:10:04;18.80;70.80
38514;DHT22;24282;48.400;10.808;2023-09-30T15:12:30;18.70;71.30
38514;DHT22;24282;48.400;10.808;2023-09-30T15:14:55;18.60;72.20
38514;DHT22;24282;48.400;10.808;2023-09-30T15:17:21;18.60;72.70
38514;DHT22;24282;48.400;10.808;2023-09-30T15:19:47;18.60;73.00
38514;DHT22;24282;48.400;10.808;2023-09-30T15:22:13;18.50;73.10
38514;DHT22;24282;48.400;10.808;2023-09-30T15:24:38;18.50;73.40
38514;DHT22;24282;48.400;10.808;2023-09-30T15:27:04;18.40;73.60
38514;DHT22;24282;48.400;10.808;2023-09-30T15:29:30;18.40;73.90
38514;DHT22;24282;48.400;10.808;2023-09-30T15:31:56;18.40;73.90
38514;DHT22;24282;48.400;10.808;2023-09-30T15:34:22;18.30;74.20
38514;DHT22;24282;48.400;10.808;2023-09-30T15:36:48;18.30;73.80
38514;DHT22;24282;48.400;10.808;2023-09-30T15:39:13;18.30;74.10